sensor_id;sensor_type;location;lat;lon;timestamp;P1;durP1;ratioP1;P2;durP2;ratioP2
36551;SDS011;22559;54.176;12.102;2023-10-31T00:00:43;5.17;;;3.23;;
36551;SDS011;22559;54.176;12.102;2023-10-31T00:03:09;6.90;;;3.10;;
36551;SDS011;22559;54.176;12.102;2023-10-31T00:05:35;3.43;;;2.50;;
36551;SDS011;22559;54.176;12.102;2023-10-31T00:08:01;6.47;;;3.20;;
36551;SDS011;22559;54.176;12.102;2023-10-31T00:10:27;7.93;;;3.77;;
36551;SDS011;22559;54.176;12.102;2023-10-31T00:12:52;7.50;;;4.13;;
36551;SDS011;22559;54.176;12.102;2023-10-31T00:15:18;7.40;;;4.33;;
36551;SDS011;22559;54.176;12.102;2023-10-31T00:17:44;6.37;;;3.90;;
36551;SDS011;22559;54.176;12.102;2023-10-31T00:20:09;8.80;;;4.20;;
36551;SDS011;22559;54.176;12.102;2023-10-31T00:22:35;9.30;;;3.67;;
36551;SDS011;22559;54.176;12.102;2023-10-31T00:25:01;7.13;;;4.13;;
36551;SDS011;22559;54.176;12.102;2023-10-31T00:27:26;6.07;;;3.23;;
36551;SDS011;22559;54.176;12.102;2023-10-31T00:29:52;4.93;;;3.27;;
36551;SDS011;22559;54.176;12.102;2023-10-31T00:32:18;5.87;;;2.90;;
36551;SDS011;22559;54.176;12.102;2023-10-31T00:34:43;4.50;;;3.10;;
36551;SDS011;22559;54.176;12.102;2023-10-31T00:37:09;4.57;;;2.97;;
36551;SDS011;22559;54.176;12.102;2023-10-31T00:39:35;9.13;;;3.50;;
36551;SDS011;22559;54.176;12.102;2023-10-31T00:42:00;5.00;;;3.37;;
36551;SDS011;22559;54.176;12.102;2023-10-31T00:44:26;6.00;;;3.20;;
36551;SDS011;22559;54.176;12.102;2023-10-31T00:46:52;5.67;;;3.70;;
36551;SDS011;22559;54.176;12.102;2023-10-31T00:49:17;5.83;;;3.73;;
36551;SDS011;22559;54.176;12.102;2023-10-31T00:51:43;6.30;;;3.53;;
36551;SDS011;22559;54.176;12.102;2023-10-31T00:54:08;5.63;;;3.50;;
36551;SDS011;22559;54.176;12.102;2023-10-31T00:56:34;7.07;;;4.47;;
36551;SDS011;22559;54.176;12.102;2023-10-31T00:59:00;4.70;;;3.47;;
36551;SDS011;22559;54.176;12.102;2023-10-31T01:01:25;7.93;;;4.23;;
36551;SDS011;22559;54.176;12.102;2023-10-31T01:03:51;6.50;;;4.30;;
36551;SDS011;22559;54.176;12.102;2023-10-31T01:06:17;7.00;;;4.53;;
36551;SDS011;22559;54.176;12.102;2023-10-31T01:08:42;8.27;;;4.40;;
36551;SDS011;22559;54.176;12.102;2023-10-31T01:11:08;6.77;;;4.10;;
36551;SDS011;22559;54.176;12.102;2023-10-31T01:13:34;5.67;;;4.00;;
36551;SDS011;22559;54.176;12.102;2023-10-31T01:15:59;8.47;;;4.70;;
36551;SDS011;22559;54.176;12.102;2023-10-31T01:18:25;7.67;;;4.47;;
36551;SDS011;22559;54.176;12.102;2023-10-31T01:20:51;10.00;;;4.43;;
36551;SDS011;22559;54.176;12.102;2023-10-31T01:23:16;7.47;;;4.47;;
36551;SDS011;22559;54.176;12.102;2023-10-31T01:25:42;11.77;;;5.37;;
36551;SDS011;22559;54.176;12.102;2023-10-31T01:28:07;8.13;;;5.10;;
36551;SDS011;22559;54.176;12.102;2023-10-31T01:30:33;8.67;;;5.00;;
36551;SDS011;22559;54.176;12.102;2023-10-31T01:32:59;10.03;;;4.97;;
36551;SDS011;22559;54.176;12.102;2023-10-31T01:35:24;9.13;;;5.90;;
36551;SDS011;22559;54.176;12.102;2023-10-31T01:37:50;7.80;;;5.13;;
36551;SDS011;22559;54.176;12.102;2023-10-31T01:40:16;8.23;;;5.10;;
36551;SDS011;22559;54.176;12.102;2023-10-31T01:42:41;9.63;;;5.23;;
36551;SDS011;22559;54.176;12.102;2023-10-31T01:45:07;7.20;;;5.57;;
36551;SDS011;22559;54.176;12.102;2023-10-31T01:47:33;11.80;;;5.63;;
36551;SDS011;22559;54.176;12.102;2023-10-31T01:49:59;11.13;;;5.87;;
36551;SDS011;22559;54.176;12.102;2023-10-31T01:52:25;10.90;;;5.33;;
36551;SDS011;22559;54.176;12.102;2023-10-31T01:54:52;11.07;;;5.63;;
36551;SDS011;22559;54.176;12.102;2023-10-31T01:57:19;8.90;;;5.17;;
36551;SDS011;22559;54.176;12.102;2023-10-31T01:59:46;5.83;;;5.33;;
36551;SDS011;22559;54.176;12.102;2023-10-31T02:02:12;6.57;;;5.17;;
36551;SDS011;22559;54.176;12.102;2023-10-31T02:04:38;7.90;;;5.50;;
36551;SDS011;22559;54.176;12.102;2023-10-31T02:07:04;11.27;;;6.03;;
36551;SDS011;22559;54.176;12.102;2023-10-31T02:09:30;13.37;;;5.73;;
36551;SDS011;22559;54.176;12.102;2023-10-31T02:11:57;12.07;;;6.17;;
36551;SDS011;22559;54.176;12.102;2023-10-31T02:14:23;7.40;;;5.40;;
36551;SDS011;22559;54.176;12.102;2023-10-31T02:16:49;11.33;;;6.37;;
36551;SDS011;22559;54.176;12.102;2023-10-31T02:19:16;9.37;;;5.43;;
36551;SDS011;22559;54.176;12.102;2023-10-31T02:21:44;10.57;;;5.60;;
36551;SDS011;22559;54.176;12.102;2023-10-31T02:24:10;8.17;;;5.37;;
36551;SDS011;22559;54.176;12.102;2023-10-31T02:26:36;9.70;;;5.83;;
36551;SDS011;22559;54.176;12.102;2023-10-31T02:29:02;9.27;;;5.50;;
36551;SDS011;22559;54.176;12.102;2023-10-31T02:31:27;10.73;;;5.47;;
36551;SDS011;22559;54.176;12.102;2023-10-31T02:33:53;7.27;;;5.27;;
36551;SDS011;22559;54.176;12.102;2023-10-31T02:36:19;6.80;;;5.30;;
36551;SDS011;22559;54.176;12.102;2023-10-31T02:38:45;13.50;;;5.67;;
36551;SDS011;22559;54.176;12.102;2023-10-31T02:41:11;11.93;;;5.47;;
36551;SDS011;22559;54.176;12.102;2023-10-31T02:43:37;5.87;;;5.07;;
36551;SDS011;22559;54.176;12.102;2023-10-31T02:46:04;9.80;;;5.37;;
36551;SDS011;22559;54.176;12.102;2023-10-31T02:48:29;10.30;;;5.57;;
36551;SDS011;22559;54.176;12.102;2023-10-31T02:51:02;12.37;;;5.83;;
36551;SDS011;22559;54.176;12.102;2023-10-31T02:53:34;15.40;;;5.57;;
36551;SDS011;22559;54.176;12.102;2023-10-31T02:56:01;7.23;;;5.40;;
36551;SDS011;22559;54.176;12.102;2023-10-31T02:58:27;9.80;;;5.13;;
36551;SDS011;22559;54.176;12.102;2023-10-31T03:00:53;9.53;;;5.10;;
36551;SDS011;22559;54.176;12.102;2023-10-31T03:03:18;8.83;;;5.37;;
36551;SDS011;22559;54.176;12.102;2023-10-31T03:05:44;11.90;;;5.87;;
36551;SDS011;22559;54.176;12.102;2023-10-31T03:08:10;10.40;;;6.00;;
36551;SDS011;22559;54.176;12.102;2023-10-31T03:10:37;12.53;;;6.30;;
36551;SDS011;22559;54.176;12.102;2023-10-31T03:13:03;12.03;;;5.50;;
36551;SDS011;22559;54.176;12.102;2023-10-31T03:15:29;12.07;;;5.77;;
36551;SDS011;22559;54.176;12.102;2023-10-31T03:17:55;8.27;;;6.20;;
36551;SDS011;22559;54.176;12.102;2023-10-31T03:20:20;16.87;;;6.03;;
36551;SDS011;22559;54.176;12.102;2023-10-31T03:22:46;12.90;;;5.93;;
36551;SDS011;22559;54.176;12.102;2023-10-31T03:25:11;10.33;;;6.43;;
36551;SDS011;22559;54.176;12.102;2023-10-31T03:27:37;12.90;;;7.03;;
36551;SDS011;22559;54.176;12.102;2023-10-31T03:30:09;7.43;;;5.67;;
36551;SDS011;22559;54.176;12.102;2023-10-31T03:32:35;7.33;;;5.50;;
36551;SDS011;22559;54.176;12.102;2023-10-31T03:35:00;8.30;;;5.97;;
36551;SDS011;22559;54.176;12.102;2023-10-31T03:37:26;12.77;;;6.00;;
36551;SDS011;22559;54.176;12.102;2023-10-31T03:39:52;7.63;;;5.57;;
36551;SDS011;22559;54.176;12.102;2023-10-31T03:42:17;8.70;;;6.10;;
36551;SDS011;22559;54.176;12.102;2023-10-31T03:44:43;10.80;;;6.20;;
36551;SDS011;22559;54.176;12.102;2023-10-31T03:47:08;12.77;;;5.97;;
36551;SDS011;22559;54.176;12.102;2023-10-31T03:49:37;7.60;;;5.97;;
36551;SDS011;22559;54.176;12.102;2023-10-31T03:52:03;10.90;;;6.23;;
36551;SDS011;22559;54.176;12.102;2023-10-31T03:54:29;8.83;;;6.00;;
36551;SDS011;22559;54.176;12.102;2023-10-31T03:56:56;7.87;;;5.80;;
36551;SDS011;22559;54.176;12.102;2023-10-31T03:59:21;9.37;;;6.07;;
36551;SDS011;22559;54.176;12.102;2023-10-31T04:01:47;10.50;;;6.27;;
36551;SDS011;22559;54.176;12.102;2023-10-31T04:04:13;9.43;;;6.60;;
36551;SDS011;22559;54.176;12.102;2023-10-31T04:06:38;8.70;;;6.80;;
36551;SDS011;22559;54.176;12.102;2023-10-31T04:09:06;8.27;;;5.97;;
36551;SDS011;22559;54.176;12.102;2023-10-31T04:11:32;12.20;;;6.50;;
36551;SDS011;22559;54.176;12.102;2023-10-31T04:13:57;8.03;;;6.13;;
36551;SDS011;22559;54.176;12.102;2023-10-31T04:16:23;7.37;;;6.17;;
36551;SDS011;22559;54.176;12.102;2023-10-31T04:18:48;10.50;;;6.33;;
36551;SDS011;22559;54.176;12.102;2023-10-31T04:21:14;11.53;;;6.27;;
36551;SDS011;22559;54.176;12.102;2023-10-31T04:23:40;8.33;;;5.93;;
36551;SDS011;22559;54.176;12.102;2023-10-31T04:26:05;9.90;;;5.90;;
36551;SDS011;22559;54.176;12.102;2023-10-31T04:28:31;9.03;;;6.27;;
36551;SDS011;22559;54.176;12.102;2023-10-31T04:30:56;11.13;;;6.87;;
36551;SDS011;22559;54.176;12.102;2023-10-31T04:33:22;11.77;;;6.57;;
36551;SDS011;22559;54.176;12.102;2023-10-31T04:35:47;8.87;;;7.20;;
36551;SDS011;22559;54.176;12.102;2023-10-31T04:38:13;9.00;;;7.27;;
36551;SDS011;22559;54.176;12.102;2023-10-31T04:40:39;11.20;;;7.03;;
36551;SDS011;22559;54.176;12.102;2023-10-31T04:43:04;11.47;;;6.83;;
36551;SDS011;22559;54.176;12.102;2023-10-31T04:45:30;12.63;;;7.30;;
36551;SDS011;22559;54.176;12.102;2023-10-31T04:47:56;11.50;;;7.33;;
36551;SDS011;22559;54.176;12.102;2023-10-31T04:50:21;11.83;;;7.23;;
36551;SDS011;22559;54.176;12.102;2023-10-31T04:52:47;9.20;;;6.73;;
36551;SDS011;22559;54.176;12.102;2023-10-31T04:55:12;11.70;;;6.97;;
36551;SDS011;22559;54.176;12.102;2023-10-31T04:57:38;11.77;;;7.07;;
36551;SDS011;22559;54.176;12.102;2023-10-31T05:00:05;14.77;;;7.60;;
36551;SDS011;22559;54.176;12.102;2023-10-31T05:02:33;9.90;;;7.50;;
36551;SDS011;22559;54.176;12.102;2023-10-31T05:04:58;12.73;;;7.47;;
36551;SDS011;22559;54.176;12.102;2023-10-31T05:07:24;11.27;;;7.07;;
36551;SDS011;22559;54.176;12.102;2023-10-31T05:09:50;13.53;;;7.73;;
36551;SDS011;22559;54.176;12.102;2023-10-31T05:12:15;8.67;;;6.73;;
36551;SDS011;22559;54.176;12.102;2023-10-31T05:14:41;12.03;;;7.13;;
36551;SDS011;22559;54.176;12.102;2023-10-31T05:17:06;10.63;;;6.37;;
36551;SDS011;22559;54.176;12.102;2023-10-31T05:19:32;9.23;;;6.53;;
36551;SDS011;22559;54.176;12.102;2023-10-31T05:21:58;12.17;;;7.10;;
36551;SDS011;22559;54.176;12.102;2023-10-31T05:24:23;10.33;;;6.33;;
36551;SDS011;22559;54.176;12.102;2023-10-31T05:26:49;10.00;;;6.70;;
36551;SDS011;22559;54.176;12.102;2023-10-31T05:29:14;11.93;;;6.50;;
36551;SDS011;22559;54.176;12.102;2023-10-31T05:31:40;8.07;;;6.57;;
36551;SDS011;22559;54.176;12.102;2023-10-31T05:34:06;11.70;;;6.83;;
36551;SDS011;22559;54.176;12.102;2023-10-31T05:36:32;10.03;;;6.53;;
36551;SDS011;22559;54.176;12.102;2023-10-31T05:38:58;11.93;;;7.23;;
36551;SDS011;22559;54.176;12.102;2023-10-31T05:41:23;9.53;;;6.57;;
36551;SDS011;22559;54.176;12.102;2023-10-31T05:43:49;10.00;;;7.03;;
36551;SDS011;22559;54.176;12.102;2023-10-31T05:46:15;9.30;;;6.53;;
36551;SDS011;22559;54.176;12.102;2023-10-31T05:48:41;7.20;;;6.43;;
36551;SDS011;22559;54.176;12.102;2023-10-31T05:51:11;9.20;;;6.70;;
36551;SDS011;22559;54.176;12.102;2023-10-31T05:53:41;8.27;;;6.37;;
36551;SDS011;22559;54.176;12.102;2023-10-31T05:56:08;9.13;;;6.27;;
36551;SDS011;22559;54.176;12.102;2023-10-31T05:58:35;9.30;;;6.87;;
36551;SDS011;22559;54.176;12.102;2023-10-31T06:01:02;10.67;;;6.53;;
36551;SDS011;22559;54.176;12.102;2023-10-31T06:03:28;9.83;;;6.50;;
36551;SDS011;22559;54.176;12.102;2023-10-31T06:05:53;8.97;;;6.53;;
36551;SDS011;22559;54.176;12.102;2023-10-31T06:08:19;11.13;;;6.40;;
36551;SDS011;22559;54.176;12.102;2023-10-31T06:10:45;7.37;;;6.33;;
36551;SDS011;22559;54.176;12.102;2023-10-31T06:13:10;10.70;;;6.77;;
36551;SDS011;22559;54.176;12.102;2023-10-31T06:15:36;10.20;;;6.70;;
36551;SDS011;22559;54.176;12.102;2023-10-31T06:18:02;8.87;;;6.60;;
36551;SDS011;22559;54.176;12.102;2023-10-31T06:20:28;11.27;;;6.73;;
36551;SDS011;22559;54.176;12.102;2023-10-31T06:22:54;9.63;;;6.83;;
36551;SDS011;22559;54.176;12.102;2023-10-31T06:25:19;9.00;;;6.30;;
36551;SDS011;22559;54.176;12.102;2023-10-31T06:27:45;9.50;;;6.67;;
36551;SDS011;22559;54.176;12.102;2023-10-31T06:30:10;7.80;;;6.13;;
36551;SDS011;22559;54.176;12.102;2023-10-31T06:32:36;9.00;;;6.83;;
36551;SDS011;22559;54.176;12.102;2023-10-31T06:35:05;10.77;;;6.50;;
36551;SDS011;22559;54.176;12.102;2023-10-31T06:37:31;9.53;;;6.70;;
36551;SDS011;22559;54.176;12.102;2023-10-31T06:39:56;8.37;;;6.93;;
36551;SDS011;22559;54.176;12.102;2023-10-31T06:42:22;7.77;;;6.30;;
36551;SDS011;22559;54.176;12.102;2023-10-31T06:44:48;9.00;;;7.20;;
36551;SDS011;22559;54.176;12.102;2023-10-31T06:47:13;8.50;;;6.30;;
36551;SDS011;22559;54.176;12.102;2023-10-31T06:49:39;13.57;;;6.93;;
36551;SDS011;22559;54.176;12.102;2023-10-31T06:52:05;8.17;;;7.13;;
36551;SDS011;22559;54.176;12.102;2023-10-31T06:54:31;10.40;;;7.53;;
36551;SDS011;22559;54.176;12.102;2023-10-31T06:56:56;9.87;;;6.37;;
36551;SDS011;22559;54.176;12.102;2023-10-31T06:59:22;11.87;;;7.47;;
36551;SDS011;22559;54.176;12.102;2023-10-31T07:01:47;10.03;;;7.27;;
36551;SDS011;22559;54.176;12.102;2023-10-31T07:04:13;10.43;;;7.43;;
36551;SDS011;22559;54.176;12.102;2023-10-31T07:06:39;9.97;;;7.70;;
36551;SDS011;22559;54.176;12.102;2023-10-31T07:09:04;9.13;;;7.70;;
36551;SDS011;22559;54.176;12.102;2023-10-31T07:11:30;10.80;;;7.73;;
36551;SDS011;22559;54.176;12.102;2023-10-31T07:14:00;12.17;;;7.80;;
36551;SDS011;22559;54.176;12.102;2023-10-31T07:16:29;14.27;;;7.97;;
36551;SDS011;22559;54.176;12.102;2023-10-31T07:18:55;11.70;;;7.57;;
36551;SDS011;22559;54.176;12.102;2023-10-31T07:21:21;10.53;;;8.23;;
36551;SDS011;22559;54.176;12.102;2023-10-31T07:23:46;10.90;;;7.83;;
36551;SDS011;22559;54.176;12.102;2023-10-31T07:26:12;12.43;;;8.07;;
36551;SDS011;22559;54.176;12.102;2023-10-31T07:28:37;13.30;;;7.63;;
36551;SDS011;22559;54.176;12.102;2023-10-31T07:31:03;10.77;;;7.37;;
36551;SDS011;22559;54.176;12.102;2023-10-31T07:33:29;10.33;;;7.20;;
36551;SDS011;22559;54.176;12.102;2023-10-31T07:35:55;10.53;;;7.17;;
36551;SDS011;22559;54.176;12.102;2023-10-31T07:38:21;11.87;;;7.97;;
36551;SDS011;22559;54.176;12.102;2023-10-31T07:40:46;9.77;;;7.07;;
36551;SDS011;22559;54.176;12.102;2023-10-31T07:43:13;8.80;;;7.10;;
36551;SDS011;22559;54.176;12.102;2023-10-31T07:45:40;11.03;;;7.70;;
36551;SDS011;22559;54.176;12.102;2023-10-31T07:48:06;11.27;;;7.60;;
36551;SDS011;22559;54.176;12.102;2023-10-31T07:50:32;9.37;;;7.67;;
36551;SDS011;22559;54.176;12.102;2023-10-31T07:52:58;11.57;;;8.70;;
36551;SDS011;22559;54.176;12.102;2023-10-31T07:55:24;10.77;;;8.23;;
36551;SDS011;22559;54.176;12.102;2023-10-31T07:57:50;11.87;;;8.53;;
36551;SDS011;22559;54.176;12.102;2023-10-31T08:00:15;14.40;;;8.83;;
36551;SDS011;22559;54.176;12.102;2023-10-31T08:02:41;16.43;;;10.27;;
36551;SDS011;22559;54.176;12.102;2023-10-31T08:05:07;16.03;;;9.57;;
36551;SDS011;22559;54.176;12.102;2023-10-31T08:07:33;15.17;;;9.80;;
36551;SDS011;22559;54.176;12.102;2023-10-31T08:09:59;14.33;;;9.47;;
36551;SDS011;22559;54.176;12.102;2023-10-31T08:12:25;18.00;;;9.20;;
36551;SDS011;22559;54.176;12.102;2023-10-31T08:14:50;16.03;;;9.63;;
36551;SDS011;22559;54.176;12.102;2023-10-31T08:17:16;14.40;;;10.03;;
36551;SDS011;22559;54.176;12.102;2023-10-31T08:19:41;15.10;;;10.23;;
36551;SDS011;22559;54.176;12.102;2023-10-31T08:22:07;12.53;;;10.00;;
36551;SDS011;22559;54.176;12.102;2023-10-31T08:24:33;14.73;;;9.83;;
36551;SDS011;22559;54.176;12.102;2023-10-31T08:27:01;13.40;;;9.43;;
36551;SDS011;22559;54.176;12.102;2023-10-31T08:29:27;12.13;;;9.30;;
36551;SDS011;22559;54.176;12.102;2023-10-31T08:31:52;13.83;;;9.83;;
36551;SDS011;22559;54.176;12.102;2023-10-31T08:34:18;14.63;;;10.30;;
36551;SDS011;22559;54.176;12.102;2023-10-31T08:36:43;16.80;;;9.67;;
36551;SDS011;22559;54.176;12.102;2023-10-31T08:39:09;13.30;;;10.30;;
36551;SDS011;22559;54.176;12.102;2023-10-31T08:41:35;13.17;;;9.57;;
36551;SDS011;22559;54.176;12.102;2023-10-31T08:44:02;12.67;;;9.00;;
36551;SDS011;22559;54.176;12.102;2023-10-31T08:46:28;12.37;;;8.97;;
36551;SDS011;22559;54.176;12.102;2023-10-31T08:48:54;11.60;;;8.83;;
36551;SDS011;22559;54.176;12.102;2023-10-31T08:51:19;13.03;;;9.23;;
36551;SDS011;22559;54.176;12.102;2023-10-31T08:53:45;11.30;;;8.57;;
36551;SDS011;22559;54.176;12.102;2023-10-31T08:56:11;12.90;;;8.83;;
36551;SDS011;22559;54.176;12.102;2023-10-31T08:58:36;11.07;;;8.33;;
36551;SDS011;22559;54.176;12.102;2023-10-31T09:01:02;11.97;;;8.67;;
36551;SDS011;22559;54.176;12.102;2023-10-31T09:03:28;13.80;;;9.23;;
36551;SDS011;22559;54.176;12.102;2023-10-31T09:05:53;9.93;;;7.90;;
36551;SDS011;22559;54.176;12.102;2023-10-31T09:08:19;9.57;;;7.77;;
36551;SDS011;22559;54.176;12.102;2023-10-31T09:10:45;13.60;;;8.70;;
36551;SDS011;22559;54.176;12.102;2023-10-31T09:13:11;11.60;;;8.40;;
36551;SDS011;22559;54.176;12.102;2023-10-31T09:15:38;12.40;;;8.13;;
36551;SDS011;22559;54.176;12.102;2023-10-31T09:18:03;13.23;;;9.13;;
36551;SDS011;22559;54.176;12.102;2023-10-31T09:20:29;11.60;;;8.47;;
36551;SDS011;22559;54.176;12.102;2023-10-31T09:22:55;11.33;;;8.10;;
36551;SDS011;22559;54.176;12.102;2023-10-31T09:25:21;10.67;;;7.90;;
36551;SDS011;22559;54.176;12.102;2023-10-31T09:27:46;8.20;;;7.07;;
36551;SDS011;22559;54.176;12.102;2023-10-31T09:30:12;5.97;;;4.70;;
36551;SDS011;22559;54.176;12.102;2023-10-31T09:32:38;5.63;;;5.07;;
36551;SDS011;22559;54.176;12.102;2023-10-31T09:35:04;5.30;;;4.80;;
36551;SDS011;22559;54.176;12.102;2023-10-31T09:37:30;4.53;;;4.13;;
36551;SDS011;22559;54.176;12.102;2023-10-31T09:39:56;4.43;;;3.60;;
36551;SDS011;22559;54.176;12.102;2023-10-31T09:42:22;4.27;;;3.80;;
36551;SDS011;22559;54.176;12.102;2023-10-31T09:44:47;3.27;;;2.97;;
36551;SDS011;22559;54.176;12.102;2023-10-31T09:47:13;3.10;;;2.90;;
36551;SDS011;22559;54.176;12.102;2023-10-31T09:49:40;3.50;;;3.20;;
36551;SDS011;22559;54.176;12.102;2023-10-31T09:52:06;3.20;;;2.90;;
36551;SDS011;22559;54.176;12.102;2023-10-31T09:54:33;2.80;;;2.60;;
36551;SDS011;22559;54.176;12.102;2023-10-31T09:56:59;3.10;;;2.80;;
36551;SDS011;22559;54.176;12.102;2023-10-31T09:59:25;3.03;;;2.73;;
36551;SDS011;22559;54.176;12.102;2023-10-31T10:01:51;2.83;;;2.60;;
36551;SDS011;22559;54.176;12.102;2023-10-31T10:04:17;3.17;;;2.40;;
36551;SDS011;22559;54.176;12.102;2023-10-31T10:06:49;3.10;;;2.83;;
36551;SDS011;22559;54.176;12.102;2023-10-31T10:09:26;2.57;;;2.37;;
36551;SDS011;22559;54.176;12.102;2023-10-31T10:11:53;2.17;;;2.07;;
36551;SDS011;22559;54.176;12.102;2023-10-31T10:14:19;2.07;;;1.97;;
36551;SDS011;22559;54.176;12.102;2023-10-31T10:16:44;1.93;;;1.83;;
36551;SDS011;22559;54.176;12.102;2023-10-31T10:19:28;2.07;;;1.97;;
36551;SDS011;22559;54.176;12.102;2023-10-31T10:21:55;1.90;;;1.80;;
36551;SDS011;22559;54.176;12.102;2023-10-31T10:24:22;2.40;;;2.30;;
36551;SDS011;22559;54.176;12.102;2023-10-31T10:26:49;3.40;;;2.40;;
36551;SDS011;22559;54.176;12.102;2023-10-31T10:29:15;2.80;;;2.60;;
36551;SDS011;22559;54.176;12.102;2023-10-31T10:31:41;3.27;;;3.03;;
36551;SDS011;22559;54.176;12.102;2023-10-31T10:34:07;2.97;;;2.77;;
36551;SDS011;22559;54.176;12.102;2023-10-31T10:36:34;3.20;;;3.00;;
36551;SDS011;22559;54.176;12.102;2023-10-31T10:39:00;3.07;;;2.77;;
36551;SDS011;22559;54.176;12.102;2023-10-31T10:41:26;4.00;;;3.70;;
36551;SDS011;22559;54.176;12.102;2023-10-31T10:43:57;3.43;;;3.03;;
36551;SDS011;22559;54.176;12.102;2023-10-31T10:46:35;3.97;;;3.50;;
36551;SDS011;22559;54.176;12.102;2023-10-31T10:49:05;4.13;;;3.73;;
36551;SDS011;22559;54.176;12.102;2023-10-31T10:54:49;3.83;;;3.53;;
36551;SDS011;22559;54.176;12.102;2023-10-31T10:57:21;4.73;;;3.77;;
36551;SDS011;22559;54.176;12.102;2023-10-31T11:00:09;5.80;;;3.90;;
36551;SDS011;22559;54.176;12.102;2023-10-31T11:02:39;3.70;;;3.40;;
36551;SDS011;22559;54.176;12.102;2023-10-31T11:05:07;7.00;;;4.07;;
36551;SDS011;22559;54.176;12.102;2023-10-31T11:07:34;4.97;;;3.40;;
36551;SDS011;22559;54.176;12.102;2023-10-31T11:10:02;3.03;;;2.73;;
36551;SDS011;22559;54.176;12.102;2023-10-31T11:12:30;3.13;;;2.77;;
36551;SDS011;22559;54.176;12.102;2023-10-31T11:14:57;2.77;;;2.57;;
36551;SDS011;22559;54.176;12.102;2023-10-31T11:17:25;2.93;;;2.47;;
36551;SDS011;22559;54.176;12.102;2023-10-31T11:19:54;2.43;;;2.23;;
36551;SDS011;22559;54.176;12.102;2023-10-31T11:22:21;2.20;;;2.10;;
36551;SDS011;22559;54.176;12.102;2023-10-31T11:24:48;2.30;;;2.20;;
36551;SDS011;22559;54.176;12.102;2023-10-31T11:27:14;2.07;;;1.97;;
36551;SDS011;22559;54.176;12.102;2023-10-31T11:29:42;1.67;;;1.63;;
36551;SDS011;22559;54.176;12.102;2023-10-31T11:32:09;4.50;;;1.80;;
36551;SDS011;22559;54.176;12.102;2023-10-31T11:34:38;1.70;;;1.47;;
36551;SDS011;22559;54.176;12.102;2023-10-31T11:37:18;1.40;;;1.30;;
36551;SDS011;22559;54.176;12.102;2023-10-31T11:40:37;0.90;;;0.90;;
36551;SDS011;22559;54.176;12.102;2023-10-31T11:42:50;1.00;;;1.00;;
36551;SDS011;22559;54.176;12.102;2023-10-31T11:45:40;1.07;;;1.00;;
36551;SDS011;22559;54.176;12.102;2023-10-31T11:48:13;0.93;;;0.93;;
36551;SDS011;22559;54.176;12.102;2023-10-31T11:50:39;1.50;;;1.00;;
36551;SDS011;22559;54.176;12.102;2023-10-31T11:53:12;1.00;;;1.00;;
36551;SDS011;22559;54.176;12.102;2023-10-31T11:55:42;0.90;;;0.90;;
36551;SDS011;22559;54.176;12.102;2023-10-31T12:00:40;2.37;;;1.27;;
36551;SDS011;22559;54.176;12.102;2023-10-31T12:03:06;1.00;;;1.00;;
36551;SDS011;22559;54.176;12.102;2023-10-31T12:05:31;1.00;;;0.90;;
36551;SDS011;22559;54.176;12.102;2023-10-31T12:07:57;4.87;;;4.57;;
36551;SDS011;22559;54.176;12.102;2023-10-31T12:10:23;1.50;;;1.50;;
36551;SDS011;22559;54.176;12.102;2023-10-31T12:12:50;1.73;;;1.20;;
36551;SDS011;22559;54.176;12.102;2023-10-31T12:15:16;2.70;;;2.20;;
36551;SDS011;22559;54.176;12.102;2023-10-31T12:17:42;1.40;;;1.30;;
36551;SDS011;22559;54.176;12.102;2023-10-31T12:20:08;1.50;;;1.40;;
36551;SDS011;22559;54.176;12.102;2023-10-31T12:22:34;1.40;;;1.20;;
36551;SDS011;22559;54.176;12.102;2023-10-31T12:25:03;1.40;;;1.30;;
36551;SDS011;22559;54.176;12.102;2023-10-31T12:28:03;1.50;;;1.43;;
36551;SDS011;22559;54.176;12.102;2023-10-31T12:30:22;1.10;;;1.00;;
36551;SDS011;22559;54.176;12.102;2023-10-31T12:32:54;4.53;;;1.23;;
36551;SDS011;22559;54.176;12.102;2023-10-31T12:35:22;0.80;;;0.80;;
36551;SDS011;22559;54.176;12.102;2023-10-31T12:37:49;4.40;;;0.70;;
36551;SDS011;22559;54.176;12.102;2023-10-31T12:40:19;0.63;;;0.60;;
36551;SDS011;22559;54.176;12.102;2023-10-31T12:42:47;1.27;;;0.60;;
36551;SDS011;22559;54.176;12.102;2023-10-31T12:45:14;2.90;;;0.80;;
36551;SDS011;22559;54.176;12.102;2023-10-31T12:47:42;1.00;;;0.70;;
36551;SDS011;22559;54.176;12.102;2023-10-31T12:50:14;5.50;;;0.80;;
36551;SDS011;22559;54.176;12.102;2023-10-31T12:52:45;3.90;;;0.70;;
36551;SDS011;22559;54.176;12.102;2023-10-31T12:55:16;5.93;;;1.40;;
36551;SDS011;22559;54.176;12.102;2023-10-31T12:57:46;4.50;;;0.80;;
36551;SDS011;22559;54.176;12.102;2023-10-31T13:00:13;5.10;;;0.93;;
36551;SDS011;22559;54.176;12.102;2023-10-31T13:02:40;2.10;;;0.87;;
36551;SDS011;22559;54.176;12.102;2023-10-31T13:05:13;1.53;;;1.03;;
36551;SDS011;22559;54.176;12.102;2023-10-31T13:07:47;4.57;;;1.50;;
36551;SDS011;22559;54.176;12.102;2023-10-31T13:10:17;3.20;;;0.93;;
36551;SDS011;22559;54.176;12.102;2023-10-31T13:12:44;4.53;;;1.20;;
36551;SDS011;22559;54.176;12.102;2023-10-31T13:15:16;2.63;;;0.97;;
36551;SDS011;22559;54.176;12.102;2023-10-31T13:17:45;1.73;;;1.10;;
36551;SDS011;22559;54.176;12.102;2023-10-31T13:20:12;2.77;;;1.20;;
36551;SDS011;22559;54.176;12.102;2023-10-31T13:22:40;7.20;;;1.40;;
36551;SDS011;22559;54.176;12.102;2023-10-31T13:25:07;4.93;;;1.40;;
36551;SDS011;22559;54.176;12.102;2023-10-31T13:27:38;6.40;;;1.50;;
36551;SDS011;22559;54.176;12.102;2023-10-31T13:30:08;7.80;;;1.50;;
36551;SDS011;22559;54.176;12.102;2023-10-31T13:32:39;8.70;;;2.83;;
36551;SDS011;22559;54.176;12.102;2023-10-31T13:35:06;9.87;;;3.40;;
36551;SDS011;22559;54.176;12.102;2023-10-31T13:37:34;3.80;;;1.90;;
36551;SDS011;22559;54.176;12.102;2023-10-31T13:40:00;7.23;;;3.60;;
36551;SDS011;22559;54.176;12.102;2023-10-31T13:42:26;5.57;;;1.37;;
36551;SDS011;22559;54.176;12.102;2023-10-31T13:44:52;6.27;;;1.43;;
36551;SDS011;22559;54.176;12.102;2023-10-31T13:47:18;9.07;;;1.70;;
36551;SDS011;22559;54.176;12.102;2023-10-31T13:49:44;7.27;;;1.57;;
36551;SDS011;22559;54.176;12.102;2023-10-31T13:52:10;5.33;;;1.53;;
36551;SDS011;22559;54.176;12.102;2023-10-31T13:54:35;7.87;;;1.40;;
36551;SDS011;22559;54.176;12.102;2023-10-31T13:57:01;6.50;;;2.17;;
36551;SDS011;22559;54.176;12.102;2023-10-31T13:59:26;7.17;;;2.90;;
36551;SDS011;22559;54.176;12.102;2023-10-31T14:01:52;6.60;;;1.90;;
36551;SDS011;22559;54.176;12.102;2023-10-31T14:04:19;5.57;;;1.70;;
36551;SDS011;22559;54.176;12.102;2023-10-31T14:06:45;8.17;;;1.70;;
36551;SDS011;22559;54.176;12.102;2023-10-31T14:09:11;2.10;;;1.40;;
36551;SDS011;22559;54.176;12.102;2023-10-31T14:11:37;2.93;;;1.43;;
36551;SDS011;22559;54.176;12.102;2023-10-31T14:14:06;3.60;;;1.33;;
36551;SDS011;22559;54.176;12.102;2023-10-31T14:16:34;3.40;;;2.40;;
36551;SDS011;22559;54.176;12.102;2023-10-31T14:19:03;3.43;;;1.40;;
36551;SDS011;22559;54.176;12.102;2023-10-31T14:21:30;3.43;;;1.20;;
36551;SDS011;22559;54.176;12.102;2023-10-31T14:23:56;3.00;;;1.60;;
36551;SDS011;22559;54.176;12.102;2023-10-31T14:26:22;5.00;;;1.20;;
36551;SDS011;22559;54.176;12.102;2023-10-31T14:28:49;2.63;;;1.20;;
36551;SDS011;22559;54.176;12.102;2023-10-31T14:31:15;3.43;;;1.30;;
36551;SDS011;22559;54.176;12.102;2023-10-31T14:33:41;5.90;;;1.30;;